sensor_id;sensor_type;location;lat;lon;timestamp;temperature;humidity
19968;DHT22;10145;49.152;9.282;2023-04-03T00:01:55;4.60;99.90
19968;DHT22;10145;49.152;9.282;2023-04-03T00:04:21;4.50;99.90
19968;DHT22;10145;49.152;9.282;2023-04-03T00:06:46;4.50;99.90
19968;DHT22;10145;49.152;9.282;2023-04-03T00:09:12;4.50;99.90
19968;DHT22;10145;49.152;9.282;2023-04-03T00:11:38;4.50;99.90
19968;DHT22;10145;49.152;9.282;2023-04-03T00:14:03;4.50;99.90
19968;DHT22;10145;49.152;9.282;2023-04-03T00:16:29;4.40;99.90
19968;DHT22;10145;49.152;9.282;2023-04-03T00:18:55;4.50;99.90
19968;DHT22;10145;49.152;9.282;2023-04-03T00:21:20;4.40;99.90
19968;DHT22;10145;49.152;9.282;2023-04-03T00:23:46;4.40;99.90
19968;DHT22;10145;49.152;9.282;2023-04-03T00:26:11;4.50;99.90
19968;DHT22;10145;49.152;9.282;2023-04-03T00:28:37;4.40;99.90
19968;DHT22;10145;49.152;9.282;2023-04-03T00:31:03;4.40;99.90
19968;DHT22;10145;49.152;9.282;2023-04-03T00:33:28;4.30;99.90
19968;DHT22;10145;49.152;9.282;2023-04-03T00:35:54;4.30;99.90
19968;DHT22;10145;49.152;9.282;2023-04-03T00:38:19;4.30;99.90
19968;DHT22;10145;49.152;9.282;2023-04-03T00:40:47;4.30;99.90
19968;DHT22;10145;49.152;9.282;2023-04-03T00:43:22;4.30;99.90
19968;DHT22;10145;49.152;9.282;2023-04-03T00:45:52;4.30;99.90
19968;DHT22;10145;49.152;9.282;2023-04-03T00:48:42;4.30;99.90
19968;DHT22;10145;49.152;9.282;2023-04-03T00:51:09;4.30;99.90
19968;DHT22;10145;49.152;9.282;2023-04-03T00:53:46;4.30;99.90
19968;DHT22;10145;49.152;9.282;2023-04-03T00:56:15;4.30;99.90
19968;DHT22;10145;49.152;9.282;2023-04-03T00:58:51;4.20;99.90
19968;DHT22;10145;49.152;9.282;2023-04-03T01:01:22;4.20;99.90
19968;DHT22;10145;49.152;9.282;2023-04-03T01:03:47;4.20;99.90
19968;DHT22;10145;49.152;9.282;2023-04-03T01:06:16;4.20;99.90
19968;DHT22;10145;49.152;9.282;2023-04-03T01:08:42;4.30;99.90
19968;DHT22;10145;49.152;9.282;2023-04-03T01:11:08;4.30;99.90
19968;DHT22;10145;49.152;9.282;2023-04-03T01:13:34;4.30;99.90
19968;DHT22;10145;49.152;9.282;2023-04-03T01:16:03;4.40;99.90
19968;DHT22;10145;49.152;9.282;2023-04-03T01:18:30;4.40;99.90
19968;DHT22;10145;49.152;9.282;2023-04-03T01:21:26;4.40;99.90
19968;DHT22;10145;49.152;9.282;2023-04-03T01:24:01;4.50;99.90
19968;DHT22;10145;49.152;9.282;2023-04-03T01:26:28;4.50;99.90
19968;DHT22;10145;49.152;9.282;2023-04-03T01:28:55;4.50;99.90
19968;DHT22;10145;49.152;9.282;2023-04-03T01:34:01;4.50;99.90
19968;DHT22;10145;49.152;9.282;2023-04-03T01:36:30;4.50;99.90
19968;DHT22;10145;49.152;9.282;2023-04-03T01:38:57;4.50;99.90
19968;DHT22;10145;49.152;9.282;2023-04-03T01:41:23;4.50;99.90
19968;DHT22;10145;49.152;9.282;2023-04-03T01:43:49;4.50;99.90
19968;DHT22;10145;49.152;9.282;2023-04-03T01:46:16;4.50;99.90
19968;DHT22;10145;49.152;9.282;2023-04-03T01:48:42;4.40;99.90
19968;DHT22;10145;49.152;9.282;2023-04-03T01:51:08;4.50;99.90
19968;DHT22;10145;49.152;9.282;2023-04-03T01:53:33;4.40;99.90
19968;DHT22;10145;49.152;9.282;2023-04-03T01:55:59;4.40;99.90
19968;DHT22;10145;49.152;9.282;2023-04-03T01:58:25;4.40;99.90
19968;DHT22;10145;49.152;9.282;2023-04-03T02:00:51;4.40;99.90
19968;DHT22;10145;49.152;9.282;2023-04-03T02:03:16;4.30;99.90
19968;DHT22;10145;49.152;9.282;2023-04-03T02:05:42;4.30;99.90
19968;DHT22;10145;49.152;9.282;2023-04-03T02:08:08;4.30;99.90
19968;DHT22;10145;49.152;9.282;2023-04-03T02:10:33;4.30;99.90
19968;DHT22;10145;49.152;9.282;2023-04-03T02:12:59;4.30;99.90
19968;DHT22;10145;49.152;9.282;2023-04-03T02:15:25;4.30;99.90
19968;DHT22;10145;49.152;9.282;2023-04-03T02:17:50;4.30;99.90
19968;DHT22;10145;49.152;9.282;2023-04-03T02:20:17;4.30;99.90
19968;DHT22;10145;49.152;9.282;2023-04-03T02:22:43;4.30;99.90
19968;DHT22;10145;49.152;9.282;2023-04-03T02:25:09;4.30;99.90
19968;DHT22;10145;49.152;9.282;2023-04-03T02:27:35;4.30;99.90
19968;DHT22;10145;49.152;9.282;2023-04-03T02:30:01;4.30;99.90
19968;DHT22;10145;49.152;9.282;2023-04-03T02:32:27;4.30;99.90
19968;DHT22;10145;49.152;9.282;2023-04-03T02:34:52;4.30;99.90
19968;DHT22;10145;49.152;9.282;2023-04-03T02:37:18;4.30;99.90
19968;DHT22;10145;49.152;9.282;2023-04-03T02:39:43;4.30;99.90
19968;DHT22;10145;49.152;9.282;2023-04-03T02:42:09;4.30;99.90
19968;DHT22;10145;49.152;9.282;2023-04-03T02:44:35;4.20;99.90
19968;DHT22;10145;49.152;9.282;2023-04-03T02:47:01;4.20;99.90
19968;DHT22;10145;49.152;9.282;2023-04-03T02:49:26;4.20;99.90
19968;DHT22;10145;49.152;9.282;2023-04-03T02:51:52;4.20;99.90
19968;DHT22;10145;49.152;9.282;2023-04-03T02:54:17;4.20;99.90
19968;DHT22;10145;49.152;9.282;2023-04-03T02:56:43;4.20;99.90
19968;DHT22;10145;49.152;9.282;2023-04-03T02:59:09;4.30;99.90
19968;DHT22;10145;49.152;9.282;2023-04-03T03:01:34;4.30;99.90
19968;DHT22;10145;49.152;9.282;2023-04-03T03:04:01;4.20;99.90
19968;DHT22;10145;49.152;9.282;2023-04-03T03:06:26;4.20;99.90
19968;DHT22;10145;49.152;9.282;2023-04-03T03:08:52;4.20;99.90
19968;DHT22;10145;49.152;9.282;2023-04-03T03:11:18;4.20;99.90
19968;DHT22;10145;49.152;9.282;2023-04-03T03:13:44;4.20;99.90
19968;DHT22;10145;49.152;9.282;2023-04-03T03:16:09;4.10;99.90
19968;DHT22;10145;49.152;9.282;2023-04-03T03:18:35;4.10;99.90
19968;DHT22;10145;49.152;9.282;2023-04-03T03:21:02;4.00;99.90
19968;DHT22;10145;49.152;9.282;2023-04-03T03:23:29;3.90;99.90
19968;DHT22;10145;49.152;9.282;2023-04-03T03:25:56;3.80;99.90
19968;DHT22;10145;49.152;9.282;2023-04-03T03:28:22;3.60;99.90
19968;DHT22;10145;49.152;9.282;2023-04-03T03:30:48;3.40;99.90
19968;DHT22;10145;49.152;9.282;2023-04-03T03:33:13;3.20;99.90
19968;DHT22;10145;49.152;9.282;2023-04-03T03:35:39;3.00;99.90
19968;DHT22;10145;49.152;9.282;2023-04-03T03:38:05;2.90;99.90
19968;DHT22;10145;49.152;9.282;2023-04-03T03:40:30;2.80;99.90
19968;DHT22;10145;49.152;9.282;2023-04-03T03:42:56;2.80;99.90
19968;DHT22;10145;49.152;9.282;2023-04-03T03:45:22;2.80;99.90
19968;DHT22;10145;49.152;9.282;2023-04-03T03:47:47;2.80;99.90
19968;DHT22;10145;49.152;9.282;2023-04-03T03:50:13;2.80;99.90
19968;DHT22;10145;49.152;9.282;2023-04-03T03:52:38;2.70;99.90
19968;DHT22;10145;49.152;9.282;2023-04-03T03:55:04;2.70;99.90
19968;DHT22;10145;49.152;9.282;2023-04-03T03:57:30;2.70;99.90
19968;DHT22;10145;49.152;9.282;2023-04-03T03:59:55;2.60;99.90
19968;DHT22;10145;49.152;9.282;2023-04-03T04:02:21;2.70;99.90
19968;DHT22;10145;49.152;9.282;2023-04-03T04:04:48;2.60;99.90
19968;DHT22;10145;49.152;9.282;2023-04-03T04:07:14;2.50;99.90
19968;DHT22;10145;49.152;9.282;2023-04-03T04:09:39;2.50;99.90
19968;DHT22;10145;49.152;9.282;2023-04-03T04:12:05;2.40;99.90
19968;DHT22;10145;49.152;9.282;2023-04-03T04:14:31;2.40;99.90
19968;DHT22;10145;49.152;9.282;2023-04-03T04:16:56;2.30;99.90
19968;DHT22;10145;49.152;9.282;2023-04-03T04:19:22;2.30;99.90
19968;DHT22;10145;49.152;9.282;2023-04-03T04:21:47;2.20;99.90
19968;DHT22;10145;49.152;9.282;2023-04-03T04:24:13;2.20;99.90
19968;DHT22;10145;49.152;9.282;2023-04-03T04:26:39;2.20;99.90
19968;DHT22;10145;49.152;9.282;2023-04-03T04:29:04;2.10;99.90
19968;DHT22;10145;49.152;9.282;2023-04-03T04:31:30;2.10;99.90
19968;DHT22;10145;49.152;9.282;2023-04-03T04:33:55;2.10;99.90
19968;DHT22;10145;49.152;9.282;2023-04-03T04:36:21;2.10;99.90
19968;DHT22;10145;49.152;9.282;2023-04-03T04:38:46;2.10;99.90
19968;DHT22;10145;49.152;9.282;2023-04-03T04:41:12;2.10;99.90
19968;DHT22;10145;49.152;9.282;2023-04-03T04:43:38;2.10;99.90
19968;DHT22;10145;49.152;9.282;2023-04-03T04:46:08;2.10;99.90
19968;DHT22;10145;49.152;9.282;2023-04-03T04:48:35;2.20;99.90
19968;DHT22;10145;49.152;9.282;2023-04-03T04:51:01;2.20;99.90
19968;DHT22;10145;49.152;9.282;2023-04-03T04:53:27;2.30;99.90
19968;DHT22;10145;49.152;9.282;2023-04-03T04:55:53;2.20;99.90
19968;DHT22;10145;49.152;9.282;2023-04-03T04:58:19;2.20;99.90
19968;DHT22;10145;49.152;9.282;2023-04-03T05:00:45;2.20;99.90
19968;DHT22;10145;49.152;9.282;2023-04-03T05:03:10;2.20;99.90
19968;DHT22;10145;49.152;9.282;2023-04-03T05:05:36;2.20;99.90
19968;DHT22;10145;49.152;9.282;2023-04-03T05:08:02;2.20;99.90
19968;DHT22;10145;49.152;9.282;2023-04-03T05:10:28;2.30;99.90
19968;DHT22;10145;49.152;9.282;2023-04-03T05:12:54;2.30;99.90
19968;DHT22;10145;49.152;9.282;2023-04-03T05:15:20;2.30;99.90
19968;DHT22;10145;49.152;9.282;2023-04-03T05:17:45;2.30;99.90
19968;DHT22;10145;49.152;9.282;2023-04-03T05:20:12;2.40;99.90
19968;DHT22;10145;49.152;9.282;2023-04-03T05:22:37;2.40;99.90
19968;DHT22;10145;49.152;9.282;2023-04-03T05:25:04;2.40;99.90
19968;DHT22;10145;49.152;9.282;2023-04-03T05:27:30;2.50;99.90
19968;DHT22;10145;49.152;9.282;2023-04-03T05:29:55;2.50;99.90
19968;DHT22;10145;49.152;9.282;2023-04-03T05:32:22;2.50;99.90
19968;DHT22;10145;49.152;9.282;2023-04-03T05:34:48;2.40;99.90
19968;DHT22;10145;49.152;9.282;2023-04-03T05:37:13;2.40;99.90
19968;DHT22;10145;49.152;9.282;2023-04-03T05:39:39;2.40;99.90
19968;DHT22;10145;49.152;9.282;2023-04-03T05:42:07;2.40;99.90
19968;DHT22;10145;49.152;9.282;2023-04-03T05:44:33;2.40;99.90
19968;DHT22;10145;49.152;9.282;2023-04-03T05:46:59;2.50;99.90
19968;DHT22;10145;49.152;9.282;2023-04-03T05:49:24;2.50;99.90
19968;DHT22;10145;49.152;9.282;2023-04-03T05:51:50;2.60;99.90
19968;DHT22;10145;49.152;9.282;2023-04-03T05:54:35;2.70;99.90
19968;DHT22;10145;49.152;9.282;2023-04-03T05:57:00;2.80;99.90
19968;DHT22;10145;49.152;9.282;2023-04-03T05:59:26;2.90;99.90
19968;DHT22;10145;49.152;9.282;2023-04-03T06:01:51;2.90;99.90
19968;DHT22;10145;49.152;9.282;2023-04-03T06:04:17;3.00;99.90
19968;DHT22;10145;49.152;9.282;2023-04-03T06:06:52;3.00;99.90
19968;DHT22;10145;49.152;9.282;2023-04-03T06:09:20;3.10;99.90
19968;DHT22;10145;49.152;9.282;2023-04-03T06:11:46;3.20;99.90
19968;DHT22;10145;49.152;9.282;2023-04-03T06:14:12;3.20;99.90
19968;DHT22;10145;49.152;9.282;2023-04-03T06:16:38;3.20;99.90
19968;DHT22;10145;49.152;9.282;2023-04-03T06:19:05;3.20;99.90
19968;DHT22;10145;49.152;9.282;2023-04-03T06:21:31;3.20;99.90
19968;DHT22;10145;49.152;9.282;2023-04-03T06:23:57;3.20;99.90
19968;DHT22;10145;49.152;9.282;2023-04-03T06:26:22;3.20;99.90
19968;DHT22;10145;49.152;9.282;2023-04-03T06:28:48;3.10;99.90
19968;DHT22;10145;49.152;9.282;2023-04-03T06:31:14;3.10;99.90
19968;DHT22;10145;49.152;9.282;2023-04-03T06:33:39;3.10;99.90
19968;DHT22;10145;49.152;9.282;2023-04-03T06:36:05;3.10;99.90
19968;DHT22;10145;49.152;9.282;2023-04-03T06:38:33;3.00;99.90
19968;DHT22;10145;49.152;9.282;2023-04-03T06:40:58;3.00;99.90
19968;DHT22;10145;49.152;9.282;2023-04-03T06:43:24;3.00;99.90
19968;DHT22;10145;49.152;9.282;2023-04-03T06:45:50;3.10;99.90
19968;DHT22;10145;49.152;9.282;2023-04-03T06:48:16;3.10;99.90
19968;DHT22;10145;49.152;9.282;2023-04-03T06:50:41;3.20;99.90
19968;DHT22;10145;49.152;9.282;2023-04-03T06:53:07;3.30;99.90
19968;DHT22;10145;49.152;9.282;2023-04-03T06:55:33;3.40;99.90
19968;DHT22;10145;49.152;9.282;2023-04-03T06:57:58;3.40;99.90
19968;DHT22;10145;49.152;9.282;2023-04-03T07:00:24;3.40;99.90
19968;DHT22;10145;49.152;9.282;2023-04-03T07:02:50;3.40;99.90
19968;DHT22;10145;49.152;9.282;2023-04-03T07:05:15;3.50;99.90
19968;DHT22;10145;49.152;9.282;2023-04-03T07:07:41;3.50;99.90
19968;DHT22;10145;49.152;9.282;2023-04-03T07:10:07;3.50;99.90
19968;DHT22;10145;49.152;9.282;2023-04-03T07:12:33;3.60;99.90
19968;DHT22;10145;49.152;9.282;2023-04-03T07:14:59;3.60;99.90
19968;DHT22;10145;49.152;9.282;2023-04-03T07:17:24;3.70;99.90
19968;DHT22;10145;49.152;9.282;2023-04-03T07:19:51;3.90;99.90
19968;DHT22;10145;49.152;9.282;2023-04-03T07:22:16;4.00;99.90
19968;DHT22;10145;49.152;9.282;2023-04-03T07:24:42;4.10;99.90
19968;DHT22;10145;49.152;9.282;2023-04-03T07:27:08;4.30;99.90
19968;DHT22;10145;49.152;9.282;2023-04-03T07:29:34;4.60;99.90
19968;DHT22;10145;49.152;9.282;2023-04-03T07:32:00;4.90;99.90
19968;DHT22;10145;49.152;9.282;2023-04-03T07:34:26;5.10;99.90
19968;DHT22;10145;49.152;9.282;2023-04-03T07:36:52;5.30;99.90
19968;DHT22;10145;49.152;9.282;2023-04-03T07:39:17;5.40;99.90
19968;DHT22;10145;49.152;9.282;2023-04-03T07:41:43;5.50;99.90
19968;DHT22;10145;49.152;9.282;2023-04-03T07:44:08;5.60;99.90
19968;DHT22;10145;49.152;9.282;2023-04-03T07:46:35;5.90;99.90
19968;DHT22;10145;49.152;9.282;2023-04-03T07:49:01;6.00;99.90
19968;DHT22;10145;49.152;9.282;2023-04-03T07:51:26;6.10;99.90
19968;DHT22;10145;49.152;9.282;2023-04-03T07:53:53;6.30;99.90
19968;DHT22;10145;49.152;9.282;2023-04-03T07:56:19;6.40;99.90
19968;DHT22;10145;49.152;9.282;2023-04-03T07:58:45;6.40;99.90
19968;DHT22;10145;49.152;9.282;2023-04-03T08:01:11;6.50;99.90
19968;DHT22;10145;49.152;9.282;2023-04-03T08:03:38;6.50;99.90
19968;DHT22;10145;49.152;9.282;2023-04-03T08:06:05;6.70;99.90
19968;DHT22;10145;49.152;9.282;2023-04-03T08:08:31;6.80;99.90
19968;DHT22;10145;49.152;9.282;2023-04-03T08:11:00;6.80;99.90
19968;DHT22;10145;49.152;9.282;2023-04-03T08:13:25;6.90;99.90
19968;DHT22;10145;49.152;9.282;2023-04-03T08:15:51;6.90;99.90
19968;DHT22;10145;49.152;9.282;2023-04-03T08:18:17;7.10;99.90
19968;DHT22;10145;49.152;9.282;2023-04-03T08:20:43;7.00;99.90
19968;DHT22;10145;49.152;9.282;2023-04-03T08:23:09;7.20;99.90
19968;DHT22;10145;49.152;9.282;2023-04-03T08:25:39;7.10;99.90
19968;DHT22;10145;49.152;9.282;2023-04-03T08:28:05;7.00;99.90
19968;DHT22;10145;49.152;9.282;2023-04-03T08:30:31;6.80;99.90
19968;DHT22;10145;49.152;9.282;2023-04-03T08:32:57;7.00;99.90
19968;DHT22;10145;49.152;9.282;2023-04-03T08:35:25;7.10;99.90
19968;DHT22;10145;49.152;9.282;2023-04-03T08:37:50;7.20;99.90
19968;DHT22;10145;49.152;9.282;2023-04-03T08:40:16;7.20;99.90
19968;DHT22;10145;49.152;9.282;2023-04-03T08:43:01;7.20;99.90
19968;DHT22;10145;49.152;9.282;2023-04-03T08:45:49;7.30;99.90
19968;DHT22;10145;49.152;9.282;2023-04-03T08:48:20;7.60;99.90
19968;DHT22;10145;49.152;9.282;2023-04-03T08:50:58;7.70;99.90
19968;DHT22;10145;49.152;9.282;2023-04-03T08:53:28;8.10;99.90
19968;DHT22;10145;49.152;9.282;2023-04-03T08:55:56;8.30;99.90
19968;DHT22;10145;49.152;9.282;2023-04-03T08:58:28;8.20;99.90
19968;DHT22;10145;49.152;9.282;2023-04-03T09:01:01;8.50;99.90
19968;DHT22;10145;49.152;9.282;2023-04-03T09:03:31;8.50;99.90
19968;DHT22;10145;49.152;9.282;2023-04-03T09:06:04;8.60;99.90
19968;DHT22;10145;49.152;9.282;2023-04-03T09:08:43;8.70;99.90
19968;DHT22;10145;49.152;9.282;2023-04-03T09:11:20;9.00;99.60
19968;DHT22;10145;49.152;9.282;2023-04-03T09:19:21;8.70;98.70
19968;DHT22;10145;49.152;9.282;2023-04-03T09:21:48;8.50;98.60
19968;DHT22;10145;49.152;9.282;2023-04-03T09:24:15;8.40;99.20
19968;DHT22;10145;49.152;9.282;2023-04-03T09:29:21;8.60;99.20
19968;DHT22;10145;49.152;9.282;2023-04-03T09:31:49;8.80;98.20
19968;DHT22;10145;49.152;9.282;2023-04-03T09:34:24;8.80;99.00
19968;DHT22;10145;49.152;9.282;2023-04-03T09:36:57;8.80;98.00
19968;DHT22;10145;49.152;9.282;2023-04-03T09:39:25;9.10;97.90
19968;DHT22;10145;49.152;9.282;2023-04-03T09:42:02;9.00;98.90
19968;DHT22;10145;49.152;9.282;2023-04-03T09:46:56;9.20;97.60
19968;DHT22;10145;49.152;9.282;2023-04-03T09:49:21;9.20;98.40
19968;DHT22;10145;49.152;9.282;2023-04-03T09:51:47;9.40;98.90
19968;DHT22;10145;49.152;9.282;2023-04-03T09:54:39;9.80;97.30
19968;DHT22;10145;49.152;9.282;2023-04-03T09:57:13;9.50;97.20
19968;DHT22;10145;49.152;9.282;2023-04-03T09:59:57;9.60;97.50
19968;DHT22;10145;49.152;9.282;2023-04-03T10:02:35;9.90;96.70
19968;DHT22;10145;49.152;9.282;2023-04-03T10:05:01;9.70;95.90
19968;DHT22;10145;49.152;9.282;2023-04-03T10:07:32;9.50;95.40
19968;DHT22;10145;49.152;9.282;2023-04-03T10:10:03;9.20;96.00
19968;DHT22;10145;49.152;9.282;2023-04-03T10:12:40;9.00;95.50
19968;DHT22;10145;49.152;9.282;2023-04-03T10:15:16;8.90;95.50
19968;DHT22;10145;49.152;9.282;2023-04-03T10:17:48;8.90;95.60
19968;DHT22;10145;49.152;9.282;2023-04-03T10:28:48;10.00;93.50
19968;DHT22;10145;49.152;9.282;2023-04-03T10:31:21;10.00;93.50
19968;DHT22;10145;49.152;9.282;2023-04-03T10:47:07;9.30;94.60
19968;DHT22;10145;49.152;9.282;2023-04-03T10:50:11;9.40;95.00
19968;DHT22;10145;49.152;9.282;2023-04-03T10:57:40;9.00;94.30
19968;DHT22;10145;49.152;9.282;2023-04-03T11:00:17;9.20;95.10
19968;DHT22;10145;49.152;9.282;2023-04-03T11:02:55;9.20;93.70
19968;DHT22;10145;49.152;9.282;2023-04-03T11:08:12;9.20;92.30
19968;DHT22;10145;49.152;9.282;2023-04-03T11:10:45;9.10;91.70
19968;DHT22;10145;49.152;9.282;2023-04-03T11:13:22;9.00;92.10
19968;DHT22;10145;49.152;9.282;2023-04-03T11:15:53;8.70;92.30
19968;DHT22;10145;49.152;9.282;2023-04-03T11:18:27;8.80;91.70
19968;DHT22;10145;49.152;9.282;2023-04-03T11:21:24;8.90;91.90
19968;DHT22;10145;49.152;9.282;2023-04-03T11:23:53;9.20;91.10
19968;DHT22;10145;49.152;9.282;2023-04-03T11:26:24;9.60;90.90
19968;DHT22;10145;49.152;9.282;2023-04-03T11:28:58;10.40;92.40
19968;DHT22;10145;49.152;9.282;2023-04-03T11:31:46;10.70;88.80
19968;DHT22;10145;49.152;9.282;2023-04-03T11:36:56;9.90;91.00
19968;DHT22;10145;49.152;9.282;2023-04-03T11:39:33;9.50;91.30
19968;DHT22;10145;49.152;9.282;2023-04-03T11:42:20;9.30;90.90
19968;DHT22;10145;49.152;9.282;2023-04-03T11:44:48;9.40;91.30
19968;DHT22;10145;49.152;9.282;2023-04-03T11:47:43;9.30;90.40
19968;DHT22;10145;49.152;9.282;2023-04-03T12:05:55;10.60;88.40
19968;DHT22;10145;49.152;9.282;2023-04-03T12:26:50;11.10;83.80
19968;DHT22;10145;49.152;9.282;2023-04-03T12:29:21;10.50;85.30
19968;DHT22;10145;49.152;9.282;2023-04-03T12:38:26;10.30;88.80
19968;DHT22;10145;49.152;9.282;2023-04-03T12:44:23;10.00;86.70
19968;DHT22;10145;49.152;9.282;2023-04-03T12:46:52;9.40;87.00
19968;DHT22;10145;49.152;9.282;2023-04-03T12:49:33;9.10;90.20
19968;DHT22;10145;49.152;9.282;2023-04-03T12:51:59;9.10;88.00
19968;DHT22;10145;49.152;9.282;2023-04-03T12:54:39;9.20;90.10
19968;DHT22;10145;49.152;9.282;2023-04-03T12:57:20;9.30;87.50
19968;DHT22;10145;49.152;9.282;2023-04-03T12:59:46;9.00;87.40
19968;DHT22;10145;49.152;9.282;2023-04-03T13:02:30;9.00;89.40
19968;DHT22;10145;49.152;9.282;2023-04-03T13:04:59;9.20;87.80
19968;DHT22;10145;49.152;9.282;2023-04-03T13:07:35;9.40;85.00
19968;DHT22;10145;49.152;9.282;2023-04-03T13:12:32;10.80;82.40
19968;DHT22;10145;49.152;9.282;2023-04-03T13:15:00;10.70;79.80
19968;DHT22;10145;49.152;9.282;2023-04-03T13:17:26;10.60;79.70
19968;DHT22;10145;49.152;9.282;2023-04-03T13:19:53;10.70;81.70
19968;DHT22;10145;49.152;9.282;2023-04-03T13:24:49;11.80;79.10
19968;DHT22;10145;49.152;9.282;2023-04-03T13:27:16;11.60;78.80
19968;DHT22;10145;49.152;9.282;2023-04-03T13:29:42;11.40;78.20
19968;DHT22;10145;49.152;9.282;2023-04-03T13:32:19;11.10;77.10
19968;DHT22;10145;49.152;9.282;2023-04-03T13:34:45;11.30;85.20
19968;DHT22;10145;49.152;9.282;2023-04-03T13:37:27;11.70;78.90
19968;DHT22;10145;49.152;9.282;2023-04-03T13:40:19;11.90;76.90
19968;DHT22;10145;49.152;9.282;2023-04-03T13:42:44;11.60;77.10
19968;DHT22;10145;49.152;9.282;2023-04-03T13:45:24;11.20;75.70
19968;DHT22;10145;49.152;9.282;2023-04-03T13:47:52;10.40;75.90
19968;DHT22;10145;49.152;9.282;2023-04-03T13:50:28;10.50;80.00
19968;DHT22;10145;49.152;9.282;2023-04-03T13:53:08;11.20;79.60
19968;DHT22;10145;49.152;9.282;2023-04-03T13:55:50;12.50;77.80
19968;DHT22;10145;49.152;9.282;2023-04-03T13:58:25;13.30;73.00
19968;DHT22;10145;49.152;9.282;2023-04-03T14:00:55;13.40;69.70
19968;DHT22;10145;49.152;9.282;2023-04-03T14:03:25;11.90;70.30
19968;DHT22;10145;49.152;9.282;2023-04-03T14:05:51;11.00;73.40
19968;DHT22;10145;49.152;9.282;2023-04-03T14:08:18;10.60;75.90
19968;DHT22;10145;49.152;9.282;2023-04-03T14:10:43;10.60;74.60
19968;DHT22;10145;49.152;9.282;2023-04-03T14:13:14;10.60;76.30
19968;DHT22;10145;49.152;9.282;2023-04-03T14:15:41;11.70;74.60
19968;DHT22;10145;49.152;9.282;2023-04-03T14:18:11;13.60;70.40
19968;DHT22;10145;49.152;9.282;2023-04-03T14:20:37;15.20;69.20
19968;DHT22;10145;49.152;9.282;2023-04-03T14:23:02;16.10;61.90
19968;DHT22;10145;49.152;9.282;2023-04-03T14:25:28;15.20;61.30
19968;DHT22;10145;49.152;9.282;2023-04-03T14:27:54;13.20;62.90
19968;DHT22;10145;49.152;9.282;2023-04-03T14:30:27;13.70;64.70
19968;DHT22;10145;49.152;9.282;2023-04-03T14:32:53;15.30;65.30
19968;DHT22;10145;49.152;9.282;2023-04-03T14:35:19;16.20;58.50
19968;DHT22;10145;49.152;9.282;2023-04-03T14:37:46;15.60;56.30
19968;DHT22;10145;49.152;9.282;2023-04-03T14:40:14;15.50;58.40
19968;DHT22;10145;49.152;9.282;2023-04-03T14:42:40;16.90;57.50
19968;DHT22;10145;49.152;9.282;2023-04-03T14:45:09;18.50;55.50
19968;DHT22;10145;49.152;9.282;2023-04-03T14:47:46;19.10;55.60
19968;DHT22;10145;49.152;9.282;2023-04-03T14:50:24;17.90;51.00
19968;DHT22;10145;49.152;9.282;2023-04-03T14:52:54;16.20;56.20
19968;DHT22;10145;49.152;9.282;2023-04-03T14:55:23;14.20;57.50
19968;DHT22;10145;49.152;9.282;2023-04-03T14:57:48;12.10;61.90
19968;DHT22;10145;49.152;9.282;2023-04-03T15:00:16;11.10;65.40
19968;DHT22;10145;49.152;9.282;2023-04-03T15:02:43;11.80;66.10
19968;DHT22;10145;49.152;9.282;2023-04-03T15:05:10;14.10;63.60
19968;DHT22;10145;49.152;9.282;2023-04-03T15:07:57;16.50;56.50
19968;DHT22;10145;49.152;9.282;2023-04-03T15:10:29;18.00;52.10
19968;DHT22;10145;49.152;9.282;2023-04-03T15:12:55;18.60;52.00
19968;DHT22;10145;49.152;9.282;2023-04-03T15:15:22;15.80;52.80
19968;DHT22;10145;49.152;9.282;2023-04-03T15:17:52;14.20;58.50
19968;DHT22;10145;49.152;9.282;2023-04-03T15:20:26;13.40;60.10
19968;DHT22;10145;49.152;9.282;2023-04-03T15:22:52;15.90;58.90
19968;DHT22;10145;49.152;9.282;2023-04-03T15:25:18;17.30;54.00
19968;DHT22;10145;49.152;9.282;2023-04-03T15:27:44;19.30;52.00
19968;DHT22;10145;49.152;9.282;2023-04-03T15:30:18;19.80;48.20
19968;DHT22;10145;49.152;9.282;2023-04-03T15:32:43;17.60;50.00
19968;DHT22;10145;49.152;9.282;2023-04-03T15:35:09;14.60;54.50
19968;DHT22;10145;49.152;9.282;2023-04-03T15:37:35;12.80;58.00
19968;DHT22;10145;49.152;9.282;2023-04-03T15:40:00;11.80;61.70
19968;DHT22;10145;49.152;9.282;2023-04-03T15:42:26;11.90;64.10
19968;DHT22;10145;49.152;9.282;2023-04-03T15:44:51;13.20;59.70
19968;DHT22;10145;49.152;9.282;2023-04-03T15:47:17;13.70;61.90
19968;DHT22;10145;49.152;9.282;2023-04-03T15:49:43;16.40;56.40
19968;DHT22;10145;49.152;9.282;2023-04-03T15:52:08;18.70;52.50
19968;DHT22;10145;49.152;9.282;2023-04-03T15:54:34;17.80;49.50
19968;DHT22;10145;49.152;9.282;2023-04-03T15:57:00;14.70;53.60
19968;DHT22;10145;49.152;9.282;2023-04-03T15:59:25;12.70;58.80
19968;DHT22;10145;49.152;9.282;2023-04-03T16:01:51;12.50;61.20
19968;DHT22;10145;49.152;9.282;2023-04-03T16:04:18;15.10;60.20
19968;DHT22;10145;49.152;9.282;2023-04-03T16:06:44;17.40;53.10
19968;DHT22;10145;49.152;9.282;2023-04-03T16:09:10;18.50;51.10
19968;DHT22;10145;49.152;9.282;2023-04-03T16:11:36;17.70;50.40
19968;DHT22;10145;49.152;9.282;2023-04-03T16:14:04;14.90;54.50
19968;DHT22;10145;49.152;9.282;2023-04-03T16:16:30;12.90;58.70
19968;DHT22;10145;49.152;9.282;2023-04-03T16:18:56;13.40;59.80
19968;DHT22;10145;49.152;9.282;2023-04-03T16:21:22;14.90;56.10
19968;DHT22;10145;49.152;9.282;2023-04-03T16:23:48;13.80;56.90
19968;DHT22;10145;49.152;9.282;2023-04-03T16:26:14;15.50;57.40
19968;DHT22;10145;49.152;9.282;2023-04-03T16:28:40;16.30;53.70
19968;DHT22;10145;49.152;9.282;2023-04-03T16:31:06;16.30;52.40
19968;DHT22;10145;49.152;9.282;2023-04-03T16:33:32;14.60;55.30
19968;DHT22;10145;49.152;9.282;2023-04-03T16:35:58;13.70;55.50
19968;DHT22;10145;49.152;9.282;2023-04-03T16:38:24;14.40;57.70
19968;DHT22;10145;49.152;9.282;2023-04-03T16:40:50;15.00;56.80
19968;DHT22;10145;49.152;9.282;2023-04-03T16:43:17;14.80;54.50
19968;DHT22;10145;49.152;9.282;2023-04-03T16:45:43;12.80;56.90
19968;DHT22;10145;49.152;9.282;2023-04-03T16:48:08;11.20;60.70
19968;DHT22;10145;49.152;9.282;2023-04-03T16:50:34;10.50;62.80
19968;DHT22;10145;49.152;9.282;2023-04-03T16:53:00;9.80;63.90
19968;DHT22;10145;49.152;9.282;2023-04-03T16:55:28;9.50;66.40
19968;DHT22;10145;49.152;9.282;2023-04-03T16:57:53;9.30;67.70
19968;DHT22;10145;49.152;9.282;2023-04-03T17:00:19;9.00;67.40
19968;DHT22;10145;49.152;9.282;2023-04-03T17:02:45;8.80;68.80
19968;DHT22;10145;49.152;9.282;2023-04-03T17:05:11;8.60;69.10
19968;DHT22;10145;49.152;9.282;2023-04-03T17:07:36;8.40;70.70
19968;DHT22;10145;49.152;9.282;2023-04-03T17:10:02;8.10;71.50
19968;DHT22;10145;49.152;9.282;2023-04-03T17:12:27;7.90;72.10
19968;DHT22;10145;49.152;9.282;2023-04-03T17:14:53;7.70;72.50
19968;DHT22;10145;49.152;9.282;2023-04-03T17:17:22;7.50;72.40
19968;DHT22;10145;49.152;9.282;2023-04-03T17:19:48;7.40;73.00
19968;DHT22;10145;49.152;9.282;2023-04-03T17:22:14;7.20;74.40
19968;DHT22;10145;49.152;9.282;2023-04-03T17:24:41;7.00;76.10